createdAt,value
2022-09-23T00:02:24.149Z,3.53
2022-09-23T00:06:29.871Z,3.97
2022-09-23T00:10:33.486Z,4.50
2022-09-23T00:14:38.490Z,3.42
2022-09-23T00:18:42.757Z,4.65
2022-09-23T00:22:47.668Z,3.65
2022-09-23T00:26:51.641Z,4.50
2022-09-23T00:30:54.759Z,4.15
2022-09-23T00:34:58.295Z,5.55
2022-09-23T00:39:04.563Z,5.13
2022-09-23T00:43:08.175Z,6.18
2022-09-23T00:47:16.035Z,3.50
2022-09-23T00:51:25.174Z,4.32
2022-09-23T00:55:33.547Z,3.95
2022-09-23T00:59:38.018Z,3.53
2022-09-23T01:03:43.148Z,4.28
2022-09-23T01:07:46.919Z,4.13
2022-09-23T01:12:01.300Z,4.78
2022-09-23T01:16:11.223Z,2.97
2022-09-23T01:20:44.886Z,3.70
2022-09-23T01:25:09.036Z,3.45
2022-09-23T01:29:50.486Z,2.90
2022-09-23T01:34:02.223Z,2.55
2022-09-23T01:38:18.608Z,3.60
2022-09-23T01:42:32.795Z,4.43
2022-09-23T01:46:42.926Z,4.95
2022-09-23T01:50:59.218Z,4.82
2022-09-23T01:55:08.803Z,2.88
2022-09-23T01:59:16.812Z,3.00
2022-09-23T02:03:27.522Z,3.53
2022-09-23T02:07:40.729Z,2.78
2022-09-23T02:11:48.203Z,3.35
2022-09-23T02:15:54.779Z,3.50
2022-09-23T02:20:03.885Z,5.30
2022-09-23T02:24:13.059Z,2.67
2022-09-23T02:28:24.775Z,3.10
2022-09-23T02:32:33.434Z,3.38
2022-09-23T02:36:46.696Z,3.60
2022-09-23T02:40:58.777Z,2.92
2022-09-23T02:45:02.489Z,2.77
2022-09-23T02:49:11.538Z,2.22
2022-09-23T02:53:16.278Z,1.77
2022-09-23T02:57:21.713Z,3.15
2022-09-23T03:01:39.772Z,2.80
2022-09-23T03:05:48.822Z,2.95
2022-09-23T03:09:58.032Z,2.78
2022-09-23T03:14:18.144Z,2.53
2022-09-23T03:18:28.853Z,3.65
2022-09-23T03:22:36.373Z,3.17
2022-09-23T03:26:43.952Z,3.25
2022-09-23T03:30:51.254Z,3.33
2022-09-23T03:34:59.414Z,3.00
2022-09-23T03:39:07.365Z,3.50
2022-09-23T03:43:12.371Z,2.72
2022-09-23T03:47:18.671Z,3.17
2022-09-23T03:51:24.450Z,3.67
2022-09-23T03:55:27.461Z,4.30
2022-09-23T03:59:31.901Z,3.25
2022-09-23T04:03:36.429Z,3.25
2022-09-23T04:07:40.302Z,3.65
2022-09-23T04:11:43.423Z,2.53
2022-09-23T04:15:47.047Z,3.90
2022-09-23T04:19:51.467Z,2.47
2022-09-23T04:23:54.910Z,3.08
2022-09-23T04:27:58.153Z,2.45
2022-09-23T04:32:01.654Z,4.65
2022-09-23T04:36:06.300Z,5.15
2022-09-23T04:40:11.158Z,3.70
2022-09-23T04:44:16.616Z,2.95
2022-09-23T04:48:20.489Z,3.85
2022-09-23T04:52:24.891Z,2.85
2022-09-23T04:56:33.190Z,2.85
2022-09-23T05:00:36.524Z,3.00
2022-09-23T05:04:41.287Z,2.08
2022-09-23T05:08:50.190Z,2.97
2022-09-23T05:12:57.002Z,2.55
2022-09-23T05:17:00.483Z,5.38
2022-09-23T05:21:04.487Z,3.47
2022-09-23T05:25:09.750Z,2.63
2022-09-23T05:29:13.394Z,3.53
2022-09-23T05:33:16.363Z,3.45
2022-09-23T05:37:19.799Z,2.10
2022-09-23T05:41:25.360Z,3.13
2022-09-23T05:45:28.989Z,2.45
2022-09-23T05:49:55.319Z,3.70
2022-09-23T05:53:58.860Z,3.22
2022-09-23T05:58:03.804Z,3.20
2022-09-23T06:02:06.816Z,2.78
2022-09-23T06:06:15.018Z,3.38
2022-09-23T06:10:18.139Z,2.53
2022-09-23T06:14:23.009Z,1.88
2022-09-23T06:18:26.135Z,3.55
2022-09-23T06:22:29.843Z,2.78
2022-09-23T06:26:35.414Z,1.83
2022-09-23T06:30:40.886Z,2.00
2022-09-23T06:34:51.736Z,3.05
2022-09-23T06:38:56.016Z,3.47
2022-09-23T06:43:00.100Z,3.13
2022-09-23T06:47:04.905Z,5.10
2022-09-23T06:51:08.951Z,4.13
2022-09-23T06:55:12.025Z,5.32
2022-09-23T06:59:17.683Z,6.75
2022-09-23T07:03:22.856Z,5.88
2022-09-23T07:07:27.218Z,5.22
2022-09-23T07:11:30.304Z,5.07
2022-09-23T07:15:34.352Z,4.80
2022-09-23T07:19:39.374Z,5.57
2022-09-23T07:23:42.853Z,4.32
2022-09-23T07:27:48.931Z,4.63
2022-09-23T07:31:53.336Z,3.92
2022-09-23T07:35:59.367Z,4.07
2022-09-23T07:40:02.841Z,3.05
2022-09-23T07:44:06.962Z,4.47
2022-09-23T07:48:09.985Z,5.45
2022-09-23T07:52:14.342Z,4.20
2022-09-23T07:56:19.673Z,4.13
2022-09-23T08:00:23.116Z,4.47
2022-09-23T08:04:28.404Z,4.40
2022-09-23T08:08:33.542Z,4.22
2022-09-23T08:12:36.680Z,3.03
2022-09-23T08:16:39.966Z,4.55
2022-09-23T08:20:47.420Z,2.47
2022-09-23T08:24:55.189Z,2.55
2022-09-23T08:28:59.651Z,2.08
2022-09-23T08:33:03.100Z,1.88
2022-09-23T08:37:10.863Z,1.40
2022-09-23T08:41:28.847Z,1.65
2022-09-23T08:45:32.220Z,1.45
2022-09-23T08:49:41.417Z,2.42
2022-09-23T08:53:45.672Z,1.40
2022-09-23T08:58:24.441Z,1.42
2022-09-23T09:02:29.655Z,1.58
2022-09-23T09:06:52.489Z,1.33
2022-09-23T09:10:58.806Z,1.30
2022-09-23T09:15:08.522Z,1.38
2022-09-23T09:19:19.110Z,1.63
2022-09-23T09:23:25.158Z,1.50
2022-09-23T09:27:28.713Z,1.42
2022-09-23T09:31:39.524Z,1.25
2022-09-23T09:36:09.497Z,1.48
2022-09-23T09:40:14.218Z,1.63
2022-09-23T09:44:27.359Z,1.73
2022-09-23T09:48:39.421Z,1.25
2022-09-23T09:52:43.580Z,1.73
2022-09-23T10:00:55.580Z,2.03
2022-09-23T10:05:03.472Z,1.88
2022-09-23T10:09:19.767Z,1.50
2022-09-23T10:13:24.808Z,1.95
2022-09-23T10:17:34.155Z,1.55
2022-09-23T10:21:39.940Z,2.05
2022-09-23T10:25:44.408Z,2.35
2022-09-23T10:29:51.905Z,1.95
2022-09-23T10:33:57.928Z,1.52
2022-09-23T10:38:02.768Z,1.90
2022-09-23T10:42:45.141Z,1.80
2022-09-23T10:46:57.812Z,1.67
2022-09-23T10:55:15.999Z,1.27
2022-09-23T10:59:45.075Z,1.45
2022-09-23T11:04:12.309Z,1.50
2022-09-23T11:08:31.728Z,1.08
2022-09-23T11:12:47.863Z,0.65
2022-09-23T11:17:15.216Z,0.80
2022-09-23T11:21:40.351Z,0.85
2022-09-23T11:25:52.587Z,0.75
2022-09-23T11:30:05.728Z,0.95
2022-09-23T11:34:26.630Z,0.40
2022-09-23T11:38:36.683Z,0.70
2022-09-23T11:42:47.460Z,0.60
2022-09-23T11:46:58.005Z,0.68
2022-09-23T11:51:07.041Z,0.90
2022-09-23T11:55:22.802Z,0.82
2022-09-23T11:59:40.548Z,0.98
2022-09-23T12:03:53.871Z,1.15
2022-09-23T12:08:04.439Z,0.68
2022-09-23T12:12:15.244Z,0.70
2022-09-23T12:16:40.153Z,0.85
2022-09-23T12:20:56.945Z,1.00
2022-09-23T12:25:10.980Z,0.98
2022-09-23T12:29:16.084Z,1.08
2022-09-23T12:33:25.210Z,0.70
2022-09-23T12:37:36.288Z,0.90
2022-09-23T12:41:42.515Z,0.65
2022-09-23T12:45:46.489Z,0.60
2022-09-23T12:49:50.965Z,0.85
2022-09-23T12:53:58.974Z,0.80
2022-09-23T12:58:02.377Z,0.68
2022-09-23T13:02:28.319Z,0.85
2022-09-23T13:06:41.457Z,0.80
2022-09-23T13:10:50.319Z,0.85
2022-09-23T13:14:56.465Z,0.73
2022-09-23T13:19:00.877Z,0.40
2022-09-23T13:23:29.659Z,0.90
2022-09-23T13:27:35.301Z,0.57
2022-09-23T13:31:39.521Z,1.00
2022-09-23T13:35:47.641Z,0.68
2022-09-23T13:39:51.672Z,0.55
2022-09-23T13:43:58.785Z,1.02
2022-09-23T13:48:06.199Z,0.73
2022-09-23T13:52:25.545Z,0.90
2022-09-23T13:56:30.629Z,0.60
2022-09-23T14:00:39.418Z,0.60
2022-09-23T14:04:43.018Z,0.50
2022-09-23T14:08:48.330Z,0.70
2022-09-23T14:12:53.914Z,0.57
2022-09-23T14:17:00.615Z,0.80
2022-09-23T14:21:04.398Z,0.60
2022-09-23T14:25:15.614Z,0.70
2022-09-23T14:29:21.185Z,0.52
2022-09-23T14:33:28.561Z,0.52
2022-09-23T14:37:52.996Z,1.30
2022-09-23T14:41:57.189Z,0.60
2022-09-23T14:46:01.219Z,0.95
2022-09-23T14:50:24.386Z,1.00
2022-09-23T14:54:38.346Z,0.93
2022-09-23T14:58:54.197Z,0.95
2022-09-23T15:03:02.829Z,0.88
2022-09-23T15:07:17.386Z,0.65
2022-09-23T15:11:22.657Z,0.60
2022-09-23T15:15:30.097Z,0.93
2022-09-23T15:19:35.912Z,0.70
2022-09-23T15:23:47.100Z,0.80
2022-09-23T15:28:06.287Z,0.55
2022-09-23T15:32:09.375Z,0.57
2022-09-23T15:40:32.830Z,0.50
2022-09-23T15:44:36.472Z,0.50
2022-09-23T15:48:44.187Z,0.82
2022-09-23T15:52:47.210Z,0.75
2022-09-23T15:56:52.281Z,0.63
2022-09-23T16:00:58.129Z,0.80
2022-09-23T16:05:03.506Z,0.65
2022-09-23T16:09:07.084Z,0.90
2022-09-23T16:13:15.803Z,0.70
2022-09-23T16:17:19.430Z,0.45
2022-09-23T16:21:25.770Z,0.70
2022-09-23T16:25:32.526Z,0.90
2022-09-23T16:29:37.972Z,0.60
2022-09-23T16:33:41.031Z,0.65
2022-09-23T16:37:47.713Z,0.63
2022-09-23T16:41:50.734Z,0.70
2022-09-23T16:45:55.867Z,0.70
2022-09-23T16:49:58.923Z,0.70
2022-09-23T16:54:02.560Z,1.10
2022-09-23T16:58:06.028Z,0.90
2022-09-23T17:02:30.563Z,0.80
2022-09-23T17:06:34.219Z,1.00
2022-09-23T17:10:37.736Z,1.17
2022-09-23T17:14:40.764Z,2.40
2022-09-23T17:18:45.173Z,2.88
2022-09-23T17:22:48.421Z,2.88
2022-09-23T17:26:53.228Z,2.25
2022-09-23T17:30:59.594Z,2.30
2022-09-23T17:35:04.830Z,1.65
2022-09-23T17:39:08.507Z,1.58
2022-09-23T17:43:11.600Z,1.77
2022-09-23T17:47:15.052Z,1.83
2022-09-23T17:51:20.980Z,1.33
2022-09-23T17:55:23.992Z,1.65
2022-09-23T17:59:27.984Z,1.15
2022-09-23T18:03:32.597Z,2.10
2022-09-23T18:07:37.777Z,2.40
2022-09-23T18:11:43.147Z,2.67
2022-09-23T18:15:46.189Z,2.97
2022-09-23T18:19:49.837Z,2.63
2022-09-23T18:23:59.789Z,2.40
2022-09-23T18:28:09.710Z,3.08
2022-09-23T18:32:14.315Z,3.35
2022-09-23T18:36:18.006Z,3.08
2022-09-23T18:40:22.545Z,2.70
2022-09-23T18:44:26.938Z,3.88
2022-09-23T18:48:49.691Z,2.67
2022-09-23T18:52:53.229Z,3.10
2022-09-23T18:56:59.772Z,3.50
2022-09-23T19:01:08.323Z,3.78
2022-09-23T19:05:11.544Z,3.75
2022-09-23T19:09:16.431Z,3.42
2022-09-23T19:13:22.057Z,3.58
2022-09-23T19:17:25.573Z,3.08
2022-09-23T19:21:29.887Z,3.25
2022-09-23T19:25:32.927Z,3.17
2022-09-23T19:29:38.484Z,3.25
2022-09-23T19:33:46.206Z,3.50
2022-09-23T19:37:52.643Z,2.90
2022-09-23T19:41:57.243Z,2.53
2022-09-23T19:46:02.327Z,3.75
2022-09-23T19:50:07.359Z,3.83
2022-09-23T19:54:11.067Z,3.10
2022-09-23T19:58:14.602Z,2.88
2022-09-23T20:02:21.103Z,3.53
2022-09-23T20:06:25.071Z,2.88
2022-09-23T20:10:28.927Z,3.05
2022-09-23T20:14:32.114Z,3.20
2022-09-23T20:18:37.729Z,4.05
2022-09-23T20:22:41.437Z,3.10
2022-09-23T20:27:06.979Z,3.35
2022-09-23T20:31:10.595Z,3.00
2022-09-23T20:35:16.883Z,2.90
2022-09-23T20:39:20.478Z,3.20
2022-09-23T20:43:24.592Z,3.33
2022-09-23T20:47:28.019Z,2.85
2022-09-23T20:51:34.236Z,3.15
2022-09-23T20:55:37.789Z,3.55
2022-09-23T20:59:41.528Z,2.53
2022-09-23T21:03:46.436Z,3.80
2022-09-23T21:07:51.033Z,3.33
2022-09-23T21:11:54.234Z,2.47
2022-09-23T21:15:58.904Z,2.80
2022-09-23T21:20:02.113Z,3.05
2022-09-23T21:24:39.740Z,3.53
2022-09-23T21:28:33.931Z,3.10
2022-09-23T21:32:37.623Z,3.67
2022-09-23T21:40:59.258Z,3.10
2022-09-23T21:45:07.297Z,3.35
2022-09-23T21:49:10.769Z,5.07
2022-09-23T21:53:14.790Z,3.97
2022-09-23T21:57:19.262Z,4.45
2022-09-23T22:01:24.927Z,3.47
2022-09-23T22:05:28.477Z,4.53
2022-09-23T22:09:31.739Z,3.70
2022-09-23T22:13:36.646Z,3.97
2022-09-23T22:17:40.059Z,3.53
2022-09-23T22:21:46.224Z,4.32
2022-09-23T22:25:49.655Z,4.35
2022-09-23T22:30:11.969Z,5.43
2022-09-23T22:34:37.647Z,3.40
2022-09-23T22:38:39.131Z,4.00
2022-09-23T22:42:42.917Z,3.92
2022-09-23T22:46:48.338Z,3.97
2022-09-23T22:50:51.576Z,4.22
2022-09-23T22:54:55.047Z,5.10
2022-09-23T22:59:01.374Z,4.78
2022-09-23T23:03:07.337Z,4.15
2022-09-23T23:07:10.929Z,3.67
2022-09-23T23:11:14.447Z,4.20
2022-09-23T23:15:17.654Z,4.00
2022-09-23T23:19:22.810Z,3.75
2022-09-23T23:23:26.217Z,3.53
2022-09-23T23:27:29.154Z,4.03
2022-09-23T23:31:33.922Z,4.22
2022-09-23T23:35:38.531Z,3.50
2022-09-23T23:39:41.528Z,5.47
2022-09-23T23:43:46.804Z,4.38
2022-09-23T23:47:50.216Z,3.55
2022-09-23T23:51:54.537Z,5.07
2022-09-23T23:55:58.759Z,4.18
